sensor_id;sensor_type;location;lat;lon;timestamp;temperature;humidity
40952;DHT22;26682;51.660;19.338;2023-02-15T00:00:48;3.40;88.20
40952;DHT22;26682;51.660;19.338;2023-02-15T00:03:42;3.40;87.40
40952;DHT22;26682;51.660;19.338;2023-02-15T00:06:25;3.50;90.10
40952;DHT22;26682;51.660;19.338;2023-02-15T00:09:09;3.40;65.60
40952;DHT22;26682;51.660;19.338;2023-02-15T00:11:52;3.40;57.70
40952;DHT22;26682;51.660;19.338;2023-02-15T00:14:34;3.40;51.30
40952;DHT22;26682;51.660;19.338;2023-02-15T00:17:16;3.40;50.20
40952;DHT22;26682;51.660;19.338;2023-02-15T00:19:59;3.40;57.00
40952;DHT22;26682;51.660;19.338;2023-02-15T00:22:41;3.40;39.90
40952;DHT22;26682;51.660;19.338;2023-02-15T00:25:23;3.40;42.60
40952;DHT22;26682;51.660;19.338;2023-02-15T00:28:06;3.40;53.90
40952;DHT22;26682;51.660;19.338;2023-02-15T00:30:49;3.40;49.40
40952;DHT22;26682;51.660;19.338;2023-02-15T00:33:32;3.40;56.60
40952;DHT22;26682;51.660;19.338;2023-02-15T00:36:14;3.40;51.40
40952;DHT22;26682;51.660;19.338;2023-02-15T00:38:57;3.40;38.40
40952;DHT22;26682;51.660;19.338;2023-02-15T00:41:39;3.30;42.10
40952;DHT22;26682;51.660;19.338;2023-02-15T00:44:22;3.30;49.30
40952;DHT22;26682;51.660;19.338;2023-02-15T00:47:04;3.30;50.70
40952;DHT22;26682;51.660;19.338;2023-02-15T00:49:46;3.30;48.80
40952;DHT22;26682;51.660;19.338;2023-02-15T00:52:29;3.30;48.00
40952;DHT22;26682;51.660;19.338;2023-02-15T00:55:11;3.30;53.60
40952;DHT22;26682;51.660;19.338;2023-02-15T00:57:53;3.30;58.80
40952;DHT22;26682;51.660;19.338;2023-02-15T01:00:36;3.30;59.90
40952;DHT22;26682;51.660;19.338;2023-02-15T01:03:19;3.30;60.90
40952;DHT22;26682;51.660;19.338;2023-02-15T01:06:03;3.30;57.50
40952;DHT22;26682;51.660;19.338;2023-02-15T01:08:47;3.30;60.50
40952;DHT22;26682;51.660;19.338;2023-02-15T01:11:29;3.30;46.70
40952;DHT22;26682;51.660;19.338;2023-02-15T01:14:12;3.30;56.80
40952;DHT22;26682;51.660;19.338;2023-02-15T01:16:56;3.30;61.50
40952;DHT22;26682;51.660;19.338;2023-02-15T01:19:38;3.30;43.00
40952;DHT22;26682;51.660;19.338;2023-02-15T01:22:21;3.30;53.40
40952;DHT22;26682;51.660;19.338;2023-02-15T01:25:03;3.30;59.80
40952;DHT22;26682;51.660;19.338;2023-02-15T01:27:46;3.30;64.10
40952;DHT22;26682;51.660;19.338;2023-02-15T01:30:29;3.30;68.30
40952;DHT22;26682;51.660;19.338;2023-02-15T01:33:11;3.30;72.30
40952;DHT22;26682;51.660;19.338;2023-02-15T01:36:00;3.30;70.10
40952;DHT22;26682;51.660;19.338;2023-02-15T01:38:43;3.40;77.10
40952;DHT22;26682;51.660;19.338;2023-02-15T01:41:25;3.40;69.20
40952;DHT22;26682;51.660;19.338;2023-02-15T01:44:45;3.40;56.30
40952;DHT22;26682;51.660;19.338;2023-02-15T01:47:44;3.40;50.70
40952;DHT22;26682;51.660;19.338;2023-02-15T01:53:28;3.30;40.90
40952;DHT22;26682;51.660;19.338;2023-02-15T01:56:23;3.30;35.60
40952;DHT22;26682;51.660;19.338;2023-02-15T01:59:11;3.30;39.20
40952;DHT22;26682;51.660;19.338;2023-02-15T02:01:58;3.30;47.80
40952;DHT22;26682;51.660;19.338;2023-02-15T02:04:42;3.40;52.90
40952;DHT22;26682;51.660;19.338;2023-02-15T02:07:29;3.40;33.40
40952;DHT22;26682;51.660;19.338;2023-02-15T02:10:17;3.40;19.50
40952;DHT22;26682;51.660;19.338;2023-02-15T02:13:03;3.40;9.30
40952;DHT22;26682;51.660;19.338;2023-02-15T02:16:04;3.40;3.70
40952;DHT22;26682;51.660;19.338;2023-02-15T02:34:29;3.30;20.50
40952;DHT22;26682;51.660;19.338;2023-02-15T02:37:20;3.30;18.70
40952;DHT22;26682;51.660;19.338;2023-02-15T02:40:16;3.30;23.30
40952;DHT22;26682;51.660;19.338;2023-02-15T02:43:25;3.30;26.90
40952;DHT22;26682;51.660;19.338;2023-02-15T02:46:21;3.30;34.10
40952;DHT22;26682;51.660;19.338;2023-02-15T02:49:04;3.30;42.50
40952;DHT22;26682;51.660;19.338;2023-02-15T02:51:46;3.30;43.50
40952;DHT22;26682;51.660;19.338;2023-02-15T02:54:30;3.20;46.70
40952;DHT22;26682;51.660;19.338;2023-02-15T02:57:14;3.20;55.40
40952;DHT22;26682;51.660;19.338;2023-02-15T02:59:58;3.20;65.90
40952;DHT22;26682;51.660;19.338;2023-02-15T03:02:42;3.20;78.70
40952;DHT22;26682;51.660;19.338;2023-02-15T03:05:27;3.20;90.60
40952;DHT22;26682;51.660;19.338;2023-02-15T03:08:12;3.20;90.00
40952;DHT22;26682;51.660;19.338;2023-02-15T03:11:04;3.20;87.90
40952;DHT22;26682;51.660;19.338;2023-02-15T03:13:48;3.20;91.40
40952;DHT22;26682;51.660;19.338;2023-02-15T03:16:32;3.20;92.50
40952;DHT22;26682;51.660;19.338;2023-02-15T03:19:36;3.20;92.20
40952;DHT22;26682;51.660;19.338;2023-02-15T03:22:21;3.20;92.60
40952;DHT22;26682;51.660;19.338;2023-02-15T03:25:13;3.20;95.30
40952;DHT22;26682;51.660;19.338;2023-02-15T03:28:06;3.20;99.80
40952;DHT22;26682;51.660;19.338;2023-02-15T03:30:53;3.20;99.10
40952;DHT22;26682;51.660;19.338;2023-02-15T03:33:42;3.20;98.50
40952;DHT22;26682;51.660;19.338;2023-02-15T03:39:43;3.20;54.20
40952;DHT22;26682;51.660;19.338;2023-02-15T03:42:33;3.20;33.60
40952;DHT22;26682;51.660;19.338;2023-02-15T03:45:20;3.20;16.00
40952;DHT22;26682;51.660;19.338;2023-02-15T03:48:05;3.30;1.00
40952;DHT22;26682;51.660;19.338;2023-02-15T03:50:51;3.30;1.00
40952;DHT22;26682;51.660;19.338;2023-02-15T03:53:54;3.30;1.00
40952;DHT22;26682;51.660;19.338;2023-02-15T03:56:40;3.30;1.00
40952;DHT22;26682;51.660;19.338;2023-02-15T03:59:23;3.40;1.00
40952;DHT22;26682;51.660;19.338;2023-02-15T04:02:28;3.40;1.00
40952;DHT22;26682;51.660;19.338;2023-02-15T04:05:13;3.40;1.00
40952;DHT22;26682;51.660;19.338;2023-02-15T04:07:56;3.40;1.00
40952;DHT22;26682;51.660;19.338;2023-02-15T04:10:39;3.40;1.00
40952;DHT22;26682;51.660;19.338;2023-02-15T04:13:40;3.40;1.00
40952;DHT22;26682;51.660;19.338;2023-02-15T04:16:23;3.40;1.00
40952;DHT22;26682;51.660;19.338;2023-02-15T04:19:06;3.40;1.00
40952;DHT22;26682;51.660;19.338;2023-02-15T04:22:06;3.40;1.00
40952;DHT22;26682;51.660;19.338;2023-02-15T04:25:07;3.30;1.00
40952;DHT22;26682;51.660;19.338;2023-02-15T04:27:55;3.30;1.00
40952;DHT22;26682;51.660;19.338;2023-02-15T04:30:38;3.30;1.00
40952;DHT22;26682;51.660;19.338;2023-02-15T04:33:20;3.30;1.00
40952;DHT22;26682;51.660;19.338;2023-02-15T04:36:04;3.30;1.00
40952;DHT22;26682;51.660;19.338;2023-02-15T04:38:47;3.30;1.00
40952;DHT22;26682;51.660;19.338;2023-02-15T04:41:30;3.30;1.00
40952;DHT22;26682;51.660;19.338;2023-02-15T04:44:13;3.30;1.00
40952;DHT22;26682;51.660;19.338;2023-02-15T04:46:55;3.30;1.00
40952;DHT22;26682;51.660;19.338;2023-02-15T04:49:37;3.30;1.00
40952;DHT22;26682;51.660;19.338;2023-02-15T04:52:21;3.30;1.00
40952;DHT22;26682;51.660;19.338;2023-02-15T04:55:03;3.30;1.00
40952;DHT22;26682;51.660;19.338;2023-02-15T04:57:46;3.30;1.00
40952;DHT22;26682;51.660;19.338;2023-02-15T05:00:28;3.30;1.00
40952;DHT22;26682;51.660;19.338;2023-02-15T05:03:11;3.30;1.00
40952;DHT22;26682;51.660;19.338;2023-02-15T05:05:54;3.30;1.00
40952;DHT22;26682;51.660;19.338;2023-02-15T05:08:36;3.30;1.00
40952;DHT22;26682;51.660;19.338;2023-02-15T05:11:18;3.20;1.00
40952;DHT22;26682;51.660;19.338;2023-02-15T05:14:01;3.20;1.00
40952;DHT22;26682;51.660;19.338;2023-02-15T05:16:43;3.20;1.00
40952;DHT22;26682;51.660;19.338;2023-02-15T05:19:26;3.20;1.00
40952;DHT22;26682;51.660;19.338;2023-02-15T05:22:09;3.20;1.00
40952;DHT22;26682;51.660;19.338;2023-02-15T05:24:52;3.20;1.00
40952;DHT22;26682;51.660;19.338;2023-02-15T05:27:53;3.20;1.00
40952;DHT22;26682;51.660;19.338;2023-02-15T05:31:15;3.20;1.00
40952;DHT22;26682;51.660;19.338;2023-02-15T05:33:58;3.20;1.00
40952;DHT22;26682;51.660;19.338;2023-02-15T05:36:41;3.20;1.00
40952;DHT22;26682;51.660;19.338;2023-02-15T05:39:24;3.20;1.00
40952;DHT22;26682;51.660;19.338;2023-02-15T05:42:06;3.10;1.00
40952;DHT22;26682;51.660;19.338;2023-02-15T05:44:49;3.10;1.00
40952;DHT22;26682;51.660;19.338;2023-02-15T05:47:31;3.10;1.00
40952;DHT22;26682;51.660;19.338;2023-02-15T05:50:13;3.20;1.00
40952;DHT22;26682;51.660;19.338;2023-02-15T05:52:56;3.20;1.00
40952;DHT22;26682;51.660;19.338;2023-02-15T05:55:40;3.20;1.00
40952;DHT22;26682;51.660;19.338;2023-02-15T05:58:23;3.20;1.00
40952;DHT22;26682;51.660;19.338;2023-02-15T06:01:08;3.10;1.00
40952;DHT22;26682;51.660;19.338;2023-02-15T06:03:51;3.10;1.00
40952;DHT22;26682;51.660;19.338;2023-02-15T06:06:35;3.10;1.00
40952;DHT22;26682;51.660;19.338;2023-02-15T06:09:18;3.10;1.00
40952;DHT22;26682;51.660;19.338;2023-02-15T06:12:01;3.10;1.00
40952;DHT22;26682;51.660;19.338;2023-02-15T06:14:44;3.10;1.00
40952;DHT22;26682;51.660;19.338;2023-02-15T06:17:27;3.00;1.00
40952;DHT22;26682;51.660;19.338;2023-02-15T06:20:13;3.10;1.00
40952;DHT22;26682;51.660;19.338;2023-02-15T06:22:56;3.00;1.00
40952;DHT22;26682;51.660;19.338;2023-02-15T06:25:38;3.00;1.00
40952;DHT22;26682;51.660;19.338;2023-02-15T06:28:20;3.10;1.00
40952;DHT22;26682;51.660;19.338;2023-02-15T06:31:03;3.10;1.00
40952;DHT22;26682;51.660;19.338;2023-02-15T06:33:46;3.10;1.00
40952;DHT22;26682;51.660;19.338;2023-02-15T06:36:29;3.10;1.00
40952;DHT22;26682;51.660;19.338;2023-02-15T06:39:12;3.10;1.00
40952;DHT22;26682;51.660;19.338;2023-02-15T06:41:55;3.20;1.00
40952;DHT22;26682;51.660;19.338;2023-02-15T06:44:37;3.20;1.00
40952;DHT22;26682;51.660;19.338;2023-02-15T06:47:19;3.10;1.00
40952;DHT22;26682;51.660;19.338;2023-02-15T06:50:03;3.10;1.00
40952;DHT22;26682;51.660;19.338;2023-02-15T06:52:46;3.10;1.00
40952;DHT22;26682;51.660;19.338;2023-02-15T06:55:29;3.10;1.00
40952;DHT22;26682;51.660;19.338;2023-02-15T06:58:12;3.10;1.00
40952;DHT22;26682;51.660;19.338;2023-02-15T07:00:54;3.10;1.00
40952;DHT22;26682;51.660;19.338;2023-02-15T07:03:37;3.20;1.00
40952;DHT22;26682;51.660;19.338;2023-02-15T07:06:19;3.20;1.00
40952;DHT22;26682;51.660;19.338;2023-02-15T07:09:02;3.20;1.00
40952;DHT22;26682;51.660;19.338;2023-02-15T07:11:44;3.10;1.00
40952;DHT22;26682;51.660;19.338;2023-02-15T07:14:46;3.10;1.00
40952;DHT22;26682;51.660;19.338;2023-02-15T07:17:28;3.10;1.00
40952;DHT22;26682;51.660;19.338;2023-02-15T07:20:22;3.10;1.00
40952;DHT22;26682;51.660;19.338;2023-02-15T07:23:05;3.10;1.00
40952;DHT22;26682;51.660;19.338;2023-02-15T07:25:47;3.10;1.00
40952;DHT22;26682;51.660;19.338;2023-02-15T07:28:30;3.10;1.00
40952;DHT22;26682;51.660;19.338;2023-02-15T07:31:14;3.10;1.00
40952;DHT22;26682;51.660;19.338;2023-02-15T07:33:56;3.10;1.00
40952;DHT22;26682;51.660;19.338;2023-02-15T07:36:39;3.10;1.00
40952;DHT22;26682;51.660;19.338;2023-02-15T07:39:21;3.10;1.00
40952;DHT22;26682;51.660;19.338;2023-02-15T07:42:07;3.10;1.00
40952;DHT22;26682;51.660;19.338;2023-02-15T07:44:50;3.10;1.00
40952;DHT22;26682;51.660;19.338;2023-02-15T07:47:35;3.20;1.00
40952;DHT22;26682;51.660;19.338;2023-02-15T07:50:17;3.20;1.00
40952;DHT22;26682;51.660;19.338;2023-02-15T07:53:03;3.30;1.00
40952;DHT22;26682;51.660;19.338;2023-02-15T07:55:46;3.30;1.00
40952;DHT22;26682;51.660;19.338;2023-02-15T07:58:29;3.30;1.00
40952;DHT22;26682;51.660;19.338;2023-02-15T08:01:32;3.20;1.00
40952;DHT22;26682;51.660;19.338;2023-02-15T08:04:15;3.20;1.00
40952;DHT22;26682;51.660;19.338;2023-02-15T08:06:59;3.20;1.00
40952;DHT22;26682;51.660;19.338;2023-02-15T08:09:42;3.20;1.00
40952;DHT22;26682;51.660;19.338;2023-02-15T08:12:26;3.30;1.00
40952;DHT22;26682;51.660;19.338;2023-02-15T08:15:09;3.30;1.00
40952;DHT22;26682;51.660;19.338;2023-02-15T08:17:51;3.30;1.00
40952;DHT22;26682;51.660;19.338;2023-02-15T08:20:33;3.30;1.00
40952;DHT22;26682;51.660;19.338;2023-02-15T08:23:16;3.20;1.00
40952;DHT22;26682;51.660;19.338;2023-02-15T08:25:59;3.20;1.00
40952;DHT22;26682;51.660;19.338;2023-02-15T08:28:42;3.30;3.00
40952;DHT22;26682;51.660;19.338;2023-02-15T08:31:26;3.20;1.00
40952;DHT22;26682;51.660;19.338;2023-02-15T08:34:12;3.20;1.00
40952;DHT22;26682;51.660;19.338;2023-02-15T08:36:56;3.10;1.00
40952;DHT22;26682;51.660;19.338;2023-02-15T08:39:38;3.10;1.00
40952;DHT22;26682;51.660;19.338;2023-02-15T08:42:21;3.10;1.00
40952;DHT22;26682;51.660;19.338;2023-02-15T08:45:04;3.10;1.00
40952;DHT22;26682;51.660;19.338;2023-02-15T08:47:47;3.10;1.00
40952;DHT22;26682;51.660;19.338;2023-02-15T08:50:29;3.10;1.00
40952;DHT22;26682;51.660;19.338;2023-02-15T08:53:12;3.10;1.00
40952;DHT22;26682;51.660;19.338;2023-02-15T08:55:58;3.10;1.00
40952;DHT22;26682;51.660;19.338;2023-02-15T08:58:41;3.20;24.60
40952;DHT22;26682;51.660;19.338;2023-02-15T09:01:26;3.10;1.00
40952;DHT22;26682;51.660;19.338;2023-02-15T09:04:10;3.20;17.70
40952;DHT22;26682;51.660;19.338;2023-02-15T09:06:52;3.20;20.90
40952;DHT22;26682;51.660;19.338;2023-02-15T09:09:35;3.20;9.40
40952;DHT22;26682;51.660;19.338;2023-02-15T09:12:17;3.10;9.90
40952;DHT22;26682;51.660;19.338;2023-02-15T09:15:00;3.10;28.70
40952;DHT22;26682;51.660;19.338;2023-02-15T09:17:42;3.10;28.30
40952;DHT22;26682;51.660;19.338;2023-02-15T09:20:25;3.10;52.50
40952;DHT22;26682;51.660;19.338;2023-02-15T09:23:07;3.00;60.30
40952;DHT22;26682;51.660;19.338;2023-02-15T09:26:05;3.10;71.70
40952;DHT22;26682;51.660;19.338;2023-02-15T09:28:51;3.10;78.40
40952;DHT22;26682;51.660;19.338;2023-02-15T09:31:43;3.10;75.40
40952;DHT22;26682;51.660;19.338;2023-02-15T09:34:26;3.10;65.70
40952;DHT22;26682;51.660;19.338;2023-02-15T09:37:09;3.20;55.10
40952;DHT22;26682;51.660;19.338;2023-02-15T09:39:51;3.20;48.40
40952;DHT22;26682;51.660;19.338;2023-02-15T09:46:06;3.00;25.10
40952;DHT22;26682;51.660;19.338;2023-02-15T09:49:04;3.00;40.40
40952;DHT22;26682;51.660;19.338;2023-02-15T09:54:58;3.00;93.60
40952;DHT22;26682;51.660;19.338;2023-02-15T09:58:03;3.00;99.90
40952;DHT22;26682;51.660;19.338;2023-02-15T10:01:12;3.10;99.90
40952;DHT22;26682;51.660;19.338;2023-02-15T10:04:19;3.10;99.90
40952;DHT22;26682;51.660;19.338;2023-02-15T10:10:59;3.20;99.90
40952;DHT22;26682;51.660;19.338;2023-02-15T10:13:37;3.20;99.90
40952;DHT22;26682;51.660;19.338;2023-02-15T10:19:51;3.20;93.00
40952;DHT22;26682;51.660;19.338;2023-02-15T10:31:53;3.20;52.50
40952;DHT22;26682;51.660;19.338;2023-02-15T10:34:48;3.30;70.10
40952;DHT22;26682;51.660;19.338;2023-02-15T10:38:03;3.30;52.40
40952;DHT22;26682;51.660;19.338;2023-02-15T11:02:00;3.50;24.30
40952;DHT22;26682;51.660;19.338;2023-02-15T11:04:45;3.40;6.90
40952;DHT22;26682;51.660;19.338;2023-02-15T11:07:38;3.40;6.40
40952;DHT22;26682;51.660;19.338;2023-02-15T11:10:28;3.40;18.40
40952;DHT22;26682;51.660;19.338;2023-02-15T11:13:18;3.50;19.40
40952;DHT22;26682;51.660;19.338;2023-02-15T11:16:05;3.50;23.50
40952;DHT22;26682;51.660;19.338;2023-02-15T11:18:57;3.60;24.80
40952;DHT22;26682;51.660;19.338;2023-02-15T11:21:49;3.50;1.00
40952;DHT22;26682;51.660;19.338;2023-02-15T11:24:41;3.60;48.40
40952;DHT22;26682;51.660;19.338;2023-02-15T11:27:32;3.60;1.00
40952;DHT22;26682;51.660;19.338;2023-02-15T11:30:24;3.70;1.00
40952;DHT22;26682;51.660;19.338;2023-02-15T11:33:16;3.60;1.00
40952;DHT22;26682;51.660;19.338;2023-02-15T11:36:09;3.60;1.00
40952;DHT22;26682;51.660;19.338;2023-02-15T11:39:11;3.70;1.00
40952;DHT22;26682;51.660;19.338;2023-02-15T11:41:57;3.60;1.00
40952;DHT22;26682;51.660;19.338;2023-02-15T11:44:56;3.70;1.00
40952;DHT22;26682;51.660;19.338;2023-02-15T11:47:40;3.80;1.00
40952;DHT22;26682;51.660;19.338;2023-02-15T11:50:28;3.80;1.00
40952;DHT22;26682;51.660;19.338;2023-02-15T11:53:16;3.80;1.00
40952;DHT22;26682;51.660;19.338;2023-02-15T11:56:00;3.80;1.00
40952;DHT22;26682;51.660;19.338;2023-02-15T11:58:54;3.80;1.00
40952;DHT22;26682;51.660;19.338;2023-02-15T12:01:42;3.80;1.00
40952;DHT22;26682;51.660;19.338;2023-02-15T12:07:22;3.90;1.00
40952;DHT22;26682;51.660;19.338;2023-02-15T12:10:28;3.90;1.00
40952;DHT22;26682;51.660;19.338;2023-02-15T12:13:16;4.00;1.00
40952;DHT22;26682;51.660;19.338;2023-02-15T12:16:06;4.00;1.00
40952;DHT22;26682;51.660;19.338;2023-02-15T12:18:57;4.00;1.00
40952;DHT22;26682;51.660;19.338;2023-02-15T12:21:41;4.00;1.00
40952;DHT22;26682;51.660;19.338;2023-02-15T12:24:33;4.20;1.00
40952;DHT22;26682;51.660;19.338;2023-02-15T12:27:20;4.20;1.00
40952;DHT22;26682;51.660;19.338;2023-02-15T12:33:05;4.00;1.00
40952;DHT22;26682;51.660;19.338;2023-02-15T12:39:23;4.10;1.00
40952;DHT22;26682;51.660;19.338;2023-02-15T12:42:17;4.10;1.00
40952;DHT22;26682;51.660;19.338;2023-02-15T12:45:08;4.20;1.00
40952;DHT22;26682;51.660;19.338;2023-02-15T12:51:08;4.20;1.00
40952;DHT22;26682;51.660;19.338;2023-02-15T12:53:51;4.20;1.00
40952;DHT22;26682;51.660;19.338;2023-02-15T12:56:34;4.20;1.00
40952;DHT22;26682;51.660;19.338;2023-02-15T12:59:22;4.30;1.00
40952;DHT22;26682;51.660;19.338;2023-02-15T13:02:06;4.30;1.00
40952;DHT22;26682;51.660;19.338;2023-02-15T13:05:30;4.30;1.00
40952;DHT22;26682;51.660;19.338;2023-02-15T13:08:16;4.30;1.00
40952;DHT22;26682;51.660;19.338;2023-02-15T13:11:00;4.30;1.00
40952;DHT22;26682;51.660;19.338;2023-02-15T13:13:58;4.40;1.00
40952;DHT22;26682;51.660;19.338;2023-02-15T13:16:42;4.40;1.00
40952;DHT22;26682;51.660;19.338;2023-02-15T13:19:34;4.50;1.00
40952;DHT22;26682;51.660;19.338;2023-02-15T13:23:04;4.50;1.00
40952;DHT22;26682;51.660;19.338;2023-02-15T13:25:31;4.50;1.00
40952;DHT22;26682;51.660;19.338;2023-02-15T13:28:18;4.40;1.00
40952;DHT22;26682;51.660;19.338;2023-02-15T13:31:02;4.30;1.00
40952;DHT22;26682;51.660;19.338;2023-02-15T13:34:09;4.20;1.00
40952;DHT22;26682;51.660;19.338;2023-02-15T13:37:07;4.20;1.00
40952;DHT22;26682;51.660;19.338;2023-02-15T13:39:59;4.20;1.00
40952;DHT22;26682;51.660;19.338;2023-02-15T13:42:53;4.20;1.00
40952;DHT22;26682;51.660;19.338;2023-02-15T14:01:42;4.20;99.90
40952;DHT22;26682;51.660;19.338;2023-02-15T14:20:39;4.30;99.90
40952;DHT22;26682;51.660;19.338;2023-02-15T14:26:54;4.10;99.90
40952;DHT22;26682;51.660;19.338;2023-02-15T14:29:54;4.00;99.90
40952;DHT22;26682;51.660;19.338;2023-02-15T14:32:42;4.10;99.90
40952;DHT22;26682;51.660;19.338;2023-02-15T14:35:28;4.10;99.90
40952;DHT22;26682;51.660;19.338;2023-02-15T14:41:48;4.00;99.90
40952;DHT22;26682;51.660;19.338;2023-02-15T14:44:37;3.90;99.90
40952;DHT22;26682;51.660;19.338;2023-02-15T14:47:35;3.80;1.00
40952;DHT22;26682;51.660;19.338;2023-02-15T14:53:35;3.80;1.00
40952;DHT22;26682;51.660;19.338;2023-02-15T14:56:21;3.70;1.00
40952;DHT22;26682;51.660;19.338;2023-02-15T14:59:18;3.70;1.00
40952;DHT22;26682;51.660;19.338;2023-02-15T15:16:28;3.40;1.00
40952;DHT22;26682;51.660;19.338;2023-02-15T15:19:11;3.40;1.00
40952;DHT22;26682;51.660;19.338;2023-02-15T15:22:02;3.30;1.00
40952;DHT22;26682;51.660;19.338;2023-02-15T15:24:47;3.30;1.00
40952;DHT22;26682;51.660;19.338;2023-02-15T15:27:45;3.30;1.00
40952;DHT22;26682;51.660;19.338;2023-02-15T15:33:39;3.20;1.00
40952;DHT22;26682;51.660;19.338;2023-02-15T15:48:35;2.80;83.70
40952;DHT22;26682;51.660;19.338;2023-02-15T15:51:27;2.70;95.20
40952;DHT22;26682;51.660;19.338;2023-02-15T15:57:03;2.60;99.90
40952;DHT22;26682;51.660;19.338;2023-02-15T15:59:46;2.50;99.90
40952;DHT22;26682;51.660;19.338;2023-02-15T16:02:28;2.40;99.90
40952;DHT22;26682;51.660;19.338;2023-02-15T16:05:12;2.40;99.90
40952;DHT22;26682;51.660;19.338;2023-02-15T16:07:54;2.40;99.90
40952;DHT22;26682;51.660;19.338;2023-02-15T16:10:37;2.30;99.90
40952;DHT22;26682;51.660;19.338;2023-02-15T16:13:20;2.30;99.90
40952;DHT22;26682;51.660;19.338;2023-02-15T16:16:03;2.20;99.90
40952;DHT22;26682;51.660;19.338;2023-02-15T16:18:46;2.20;99.90
40952;DHT22;26682;51.660;19.338;2023-02-15T16:21:34;2.20;99.90
40952;DHT22;26682;51.660;19.338;2023-02-15T16:27:36;2.10;99.90
40952;DHT22;26682;51.660;19.338;2023-02-15T16:33:16;2.00;99.90
40952;DHT22;26682;51.660;19.338;2023-02-15T16:35:59;2.00;99.90
40952;DHT22;26682;51.660;19.338;2023-02-15T16:41:29;1.90;99.90
40952;DHT22;26682;51.660;19.338;2023-02-15T16:44:18;1.90;99.90
40952;DHT22;26682;51.660;19.338;2023-02-15T16:47:01;1.80;99.90
40952;DHT22;26682;51.660;19.338;2023-02-15T16:49:48;1.70;99.90
40952;DHT22;26682;51.660;19.338;2023-02-15T16:52:31;1.70;99.90
40952;DHT22;26682;51.660;19.338;2023-02-15T16:55:28;1.70;99.90
40952;DHT22;26682;51.660;19.338;2023-02-15T16:58:16;1.70;99.90
40952;DHT22;26682;51.660;19.338;2023-02-15T17:01:01;1.60;99.90
40952;DHT22;26682;51.660;19.338;2023-02-15T17:03:48;1.60;99.90
40952;DHT22;26682;51.660;19.338;2023-02-15T17:06:31;1.50;99.90
40952;DHT22;26682;51.660;19.338;2023-02-15T17:09:16;1.50;99.90
40952;DHT22;26682;51.660;19.338;2023-02-15T17:12:04;1.50;99.90
40952;DHT22;26682;51.660;19.338;2023-02-15T17:14:54;1.50;99.90
40952;DHT22;26682;51.660;19.338;2023-02-15T17:17:37;1.40;99.90
40952;DHT22;26682;51.660;19.338;2023-02-15T17:20:20;1.40;99.90
40952;DHT22;26682;51.660;19.338;2023-02-15T17:23:04;1.40;99.90
40952;DHT22;26682;51.660;19.338;2023-02-15T17:25:48;1.40;99.90
40952;DHT22;26682;51.660;19.338;2023-02-15T17:28:31;1.40;99.90
40952;DHT22;26682;51.660;19.338;2023-02-15T17:31:17;1.30;99.90
40952;DHT22;26682;51.660;19.338;2023-02-15T17:34:02;1.30;99.90
40952;DHT22;26682;51.660;19.338;2023-02-15T17:36:57;1.30;99.90
40952;DHT22;26682;51.660;19.338;2023-02-15T17:39:41;1.30;99.90
40952;DHT22;26682;51.660;19.338;2023-02-15T17:42:24;1.20;99.90
40952;DHT22;26682;51.660;19.338;2023-02-15T17:45:07;1.20;99.90
40952;DHT22;26682;51.660;19.338;2023-02-15T17:47:53;1.20;99.90
40952;DHT22;26682;51.660;19.338;2023-02-15T17:50:37;1.20;99.90
40952;DHT22;26682;51.660;19.338;2023-02-15T17:53:20;1.20;99.90
40952;DHT22;26682;51.660;19.338;2023-02-15T17:56:03;1.10;99.90
40952;DHT22;26682;51.660;19.338;2023-02-15T17:58:53;1.10;99.90
40952;DHT22;26682;51.660;19.338;2023-02-15T18:01:44;1.10;99.90
40952;DHT22;26682;51.660;19.338;2023-02-15T18:04:45;1.10;99.90
40952;DHT22;26682;51.660;19.338;2023-02-15T18:07:49;1.10;99.90
40952;DHT22;26682;51.660;19.338;2023-02-15T18:10:50;1.00;99.90
40952;DHT22;26682;51.660;19.338;2023-02-15T18:13:51;1.00;99.90
40952;DHT22;26682;51.660;19.338;2023-02-15T18:16:37;0.90;99.90
40952;DHT22;26682;51.660;19.338;2023-02-15T18:19:24;0.90;99.90
40952;DHT22;26682;51.660;19.338;2023-02-15T18:22:16;0.90;99.90
40952;DHT22;26682;51.660;19.338;2023-02-15T18:25:00;0.90;99.90
40952;DHT22;26682;51.660;19.338;2023-02-15T18:27:43;0.90;99.90
40952;DHT22;26682;51.660;19.338;2023-02-15T18:30:26;0.90;99.90
40952;DHT22;26682;51.660;19.338;2023-02-15T18:33:32;0.90;99.90
40952;DHT22;26682;51.660;19.338;2023-02-15T18:36:23;0.90;99.90
40952;DHT22;26682;51.660;19.338;2023-02-15T18:39:26;0.90;99.90
40952;DHT22;26682;51.660;19.338;2023-02-15T18:42:37;0.90;99.90
40952;DHT22;26682;51.660;19.338;2023-02-15T18:45:23;0.90;99.90
40952;DHT22;26682;51.660;19.338;2023-02-15T18:48:13;0.90;99.90
40952;DHT22;26682;51.660;19.338;2023-02-15T18:50:57;1.00;99.90
40952;DHT22;26682;51.660;19.338;2023-02-15T18:53:40;1.00;99.90
40952;DHT22;26682;51.660;19.338;2023-02-15T18:56:22;1.00;99.90
40952;DHT22;26682;51.660;19.338;2023-02-15T18:59:05;1.00;99.90
40952;DHT22;26682;51.660;19.338;2023-02-15T19:01:49;1.00;99.90
40952;DHT22;26682;51.660;19.338;2023-02-15T19:04:32;1.00;99.90
40952;DHT22;26682;51.660;19.338;2023-02-15T19:07:23;1.00;99.90
40952;DHT22;26682;51.660;19.338;2023-02-15T19:10:10;1.00;99.90
40952;DHT22;26682;51.660;19.338;2023-02-15T19:12:55;1.00;99.90
40952;DHT22;26682;51.660;19.338;2023-02-15T19:15:38;1.00;99.90
40952;DHT22;26682;51.660;19.338;2023-02-15T19:18:21;1.00;99.90
40952;DHT22;26682;51.660;19.338;2023-02-15T19:21:04;1.00;99.90
40952;DHT22;26682;51.660;19.338;2023-02-15T19:24:00;1.00;99.90
40952;DHT22;26682;51.660;19.338;2023-02-15T19:26:45;1.00;99.90
40952;DHT22;26682;51.660;19.338;2023-02-15T19:29:29;1.00;99.90
40952;DHT22;26682;51.660;19.338;2023-02-15T19:32:12;1.00;99.90
40952;DHT22;26682;51.660;19.338;2023-02-15T19:34:55;1.00;99.90
40952;DHT22;26682;51.660;19.338;2023-02-15T19:37:39;1.10;99.90
40952;DHT22;26682;51.660;19.338;2023-02-15T19:40:26;1.00;99.90
40952;DHT22;26682;51.660;19.338;2023-02-15T19:43:19;1.10;99.90
40952;DHT22;26682;51.660;19.338;2023-02-15T19:46:14;1.00;99.90
40952;DHT22;26682;51.660;19.338;2023-02-15T19:48:58;1.00;99.90
40952;DHT22;26682;51.660;19.338;2023-02-15T19:51:41;1.00;99.90
40952;DHT22;26682;51.660;19.338;2023-02-15T19:54:33;1.00;99.90
40952;DHT22;26682;51.660;19.338;2023-02-15T19:57:16;1.00;99.90
40952;DHT22;26682;51.660;19.338;2023-02-15T20:00:01;0.90;99.90
40952;DHT22;26682;51.660;19.338;2023-02-15T20:03:02;0.90;99.90
40952;DHT22;26682;51.660;19.338;2023-02-15T20:05:45;0.90;99.90
40952;DHT22;26682;51.660;19.338;2023-02-15T20:08:28;0.90;99.90
40952;DHT22;26682;51.660;19.338;2023-02-15T20:11:12;0.90;99.90
40952;DHT22;26682;51.660;19.338;2023-02-15T20:13:55;0.80;99.90
40952;DHT22;26682;51.660;19.338;2023-02-15T20:16:38;0.80;99.90
40952;DHT22;26682;51.660;19.338;2023-02-15T20:19:20;0.80;99.90
40952;DHT22;26682;51.660;19.338;2023-02-15T20:22:03;0.80;99.90
40952;DHT22;26682;51.660;19.338;2023-02-15T20:24:45;0.80;99.90